createdAt,value
2019-02-08T00:00:55.834Z,16.20
2019-02-08T00:01:56.800Z,17.30
2019-02-08T00:02:56.418Z,20.40
2019-02-08T00:03:56.299Z,19.10
2019-02-08T00:04:57.227Z,16.20
2019-02-08T00:05:57.444Z,19.90
2019-02-08T00:06:57.957Z,19.00
2019-02-08T00:07:57.294Z,18.50
2019-02-08T00:08:57.969Z,20.60
2019-02-08T00:09:57.819Z,16.10
2019-02-08T00:10:58.503Z,24.10
2019-02-08T00:11:58.347Z,20.50
2019-02-08T00:12:58.663Z,21.50
2019-02-08T00:13:59.331Z,16.30
2019-02-08T00:14:59.189Z,21.20
2019-02-08T00:15:59.490Z,20.10
2019-02-08T00:16:59.801Z,17.20
2019-02-08T00:18:00.679Z,19.70
2019-02-08T00:19:00.700Z,21.50
2019-02-08T00:20:01.220Z,17.80
2019-02-08T00:21:01.549Z,19.80
2019-02-08T00:22:02.073Z,16.10
2019-02-08T00:23:02.564Z,16.00
2019-02-08T00:24:02.887Z,18.20
2019-02-08T00:25:03.309Z,17.80
2019-02-08T00:26:03.508Z,16.80
2019-02-08T00:27:03.007Z,17.80
2019-02-08T00:28:02.905Z,16.80
2019-02-08T00:29:02.686Z,15.00
2019-02-08T00:30:03.951Z,17.70
2019-02-08T00:31:03.852Z,17.20
2019-02-08T00:32:03.970Z,15.10
2019-02-08T00:33:04.676Z,19.40
2019-02-08T00:34:04.472Z,17.10
2019-02-08T00:35:04.688Z,16.60
2019-02-08T00:36:04.574Z,16.70
2019-02-08T00:37:06.147Z,14.90
2019-02-08T00:38:05.840Z,18.70
2019-02-08T00:39:06.154Z,18.50
2019-02-08T00:40:06.361Z,15.80
2019-02-08T00:41:07.190Z,18.20
2019-02-08T00:42:07.099Z,20.30
2019-02-08T00:43:07.408Z,13.10
2019-02-08T00:44:07.793Z,18.30
2019-02-08T00:45:08.242Z,16.20
2019-02-08T00:46:08.350Z,16.00
2019-02-08T00:47:08.570Z,18.00
2019-02-08T00:48:08.656Z,13.70
2019-02-08T00:49:08.772Z,12.80
2019-02-08T00:50:09.000Z,16.10
2019-02-08T00:51:09.000Z,15.50
2019-02-08T00:52:09.354Z,13.80
2019-02-08T00:53:09.546Z,12.10
2019-02-08T00:54:09.717Z,19.80
2019-02-08T00:55:09.943Z,18.00
2019-02-08T00:56:10.150Z,15.20
2019-02-08T00:57:10.374Z,17.00
2019-02-08T00:58:10.368Z,16.30
2019-02-08T00:59:10.925Z,18.70
2019-02-08T01:00:11.008Z,13.60
2019-02-08T01:01:10.754Z,14.70
2019-02-08T01:02:10.873Z,12.40
2019-02-08T01:03:10.927Z,14.30
2019-02-08T01:04:11.379Z,13.70
2019-02-08T01:05:12.050Z,14.20
2019-02-08T01:06:12.266Z,15.70
2019-02-08T01:07:11.618Z,13.50
2019-02-08T01:08:11.984Z,13.90
2019-02-08T01:09:12.342Z,14.90
2019-02-08T01:10:12.631Z,17.00
2019-02-08T01:11:13.220Z,14.40
2019-02-08T01:12:13.211Z,15.30
2019-02-08T01:13:13.072Z,14.00
2019-02-08T01:14:13.415Z,12.80
2019-02-08T01:15:14.492Z,16.60
2019-02-08T01:16:14.129Z,13.90
2019-02-08T01:17:14.423Z,15.40
2019-02-08T01:18:14.702Z,13.20
2019-02-08T01:19:15.319Z,18.20
2019-02-08T01:20:15.940Z,16.20
2019-02-08T01:21:15.492Z,14.70
2019-02-08T01:22:15.791Z,16.90
2019-02-08T01:23:16.109Z,17.00
2019-02-08T01:24:16.413Z,15.20
2019-02-08T01:25:17.287Z,17.00
2019-02-08T01:26:17.412Z,15.40
2019-02-08T01:27:17.431Z,13.40
2019-02-08T01:28:17.627Z,13.10
2019-02-08T01:29:17.474Z,16.00
2019-02-08T01:30:18.043Z,15.40
2019-02-08T01:31:18.029Z,12.40
2019-02-08T01:32:18.443Z,12.30
2019-02-08T01:33:19.310Z,12.00
2019-02-08T01:34:19.095Z,15.50
2019-02-08T01:35:19.459Z,15.70
2019-02-08T01:36:19.469Z,16.50
2019-02-08T01:37:20.043Z,14.50
2019-02-08T01:38:20.577Z,14.20
2019-02-08T01:39:20.108Z,17.90
2019-02-08T01:40:21.396Z,16.80
2019-02-08T01:41:21.820Z,16.30
2019-02-08T01:42:22.332Z,11.30
2019-02-08T01:43:22.140Z,14.50
2019-02-08T01:44:22.556Z,12.80
2019-02-08T01:45:22.963Z,12.80
2019-02-08T01:46:23.174Z,11.90
2019-02-08T01:47:23.182Z,14.90
2019-02-08T01:48:23.400Z,14.50
2019-02-08T01:49:23.604Z,11.30
2019-02-08T01:50:23.812Z,9.30
2019-02-08T01:51:24.124Z,14.80
2019-02-08T01:52:24.253Z,14.40
2019-02-08T01:53:24.458Z,14.00
2019-02-08T01:54:24.457Z,13.70
2019-02-08T01:55:24.941Z,13.20
2019-02-08T01:56:25.554Z,11.40
2019-02-08T01:57:25.559Z,11.40
2019-02-08T01:58:25.496Z,11.20
2019-02-08T01:59:25.813Z,14.10
2019-02-08T02:00:25.958Z,9.60
2019-02-08T02:01:25.960Z,11.60
2019-02-08T02:02:27.680Z,12.80
2019-02-08T02:03:26.923Z,11.30
2019-02-08T02:04:27.089Z,15.10
2019-02-08T02:05:27.137Z,14.80
2019-02-08T02:06:27.399Z,15.50
2019-02-08T02:07:27.684Z,13.00
2019-02-08T02:08:27.572Z,13.60
2019-02-08T02:09:27.991Z,12.90
2019-02-08T02:10:28.417Z,11.60
2019-02-08T02:11:28.974Z,14.30
2019-02-08T02:12:28.826Z,11.80
2019-02-08T02:13:29.144Z,11.10
2019-02-08T02:14:29.279Z,13.10
2019-02-08T02:15:29.377Z,11.50
2019-02-08T02:16:29.899Z,11.80
2019-02-08T02:17:29.801Z,12.10
2019-02-08T02:18:30.212Z,10.70
2019-02-08T02:19:30.790Z,11.60
2019-02-08T02:20:31.181Z,13.00
2019-02-08T02:21:31.803Z,13.40
2019-02-08T02:22:31.706Z,10.10
2019-02-08T02:23:31.554Z,15.00
2019-02-08T02:24:32.138Z,15.30
2019-02-08T02:25:32.133Z,13.80
2019-02-08T02:26:32.486Z,11.20
2019-02-08T02:27:32.871Z,9.80
2019-02-08T02:28:33.220Z,10.20
2019-02-08T02:29:33.745Z,13.40
2019-02-08T02:30:33.522Z,9.40
2019-02-08T02:31:33.856Z,13.10
2019-02-08T02:32:34.168Z,11.20
2019-02-08T02:33:34.503Z,12.40
2019-02-08T02:34:35.084Z,11.30
2019-02-08T02:35:35.374Z,8.70
2019-02-08T02:36:36.304Z,12.60
2019-02-08T02:37:36.823Z,12.20
2019-02-08T02:38:36.827Z,10.70
2019-02-08T02:39:36.845Z,13.50
2019-02-08T02:40:36.799Z,11.70
2019-02-08T02:41:37.267Z,12.40
2019-02-08T02:42:37.259Z,16.40
2019-02-08T02:43:37.554Z,12.70
2019-02-08T02:44:38.002Z,14.30
2019-02-08T02:45:38.204Z,15.40
2019-02-08T02:46:38.223Z,13.10
2019-02-08T02:47:38.322Z,8.40
2019-02-08T02:48:38.534Z,13.40
2019-02-08T02:49:39.151Z,11.30
2019-02-08T02:50:38.748Z,12.80
2019-02-08T02:51:39.169Z,9.40
2019-02-08T02:52:39.374Z,15.30
2019-02-08T02:53:39.281Z,11.80
2019-02-08T02:54:39.678Z,10.20
2019-02-08T02:55:40.122Z,13.90
2019-02-08T02:56:40.499Z,11.00
2019-02-08T02:57:40.855Z,9.40
2019-02-08T02:58:40.948Z,11.50
2019-02-08T02:59:41.089Z,12.00
2019-02-08T03:00:41.287Z,11.00
2019-02-08T03:01:41.240Z,12.10
2019-02-08T03:02:41.138Z,9.70
2019-02-08T03:03:41.715Z,10.60
2019-02-08T03:04:41.715Z,14.00
2019-02-08T03:05:42.113Z,11.60
2019-02-08T03:06:42.195Z,15.20
2019-02-08T03:07:42.612Z,10.70
2019-02-08T03:08:43.503Z,13.50
2019-02-08T03:09:43.749Z,14.00
2019-02-08T03:10:43.650Z,11.20
2019-02-08T03:11:44.056Z,14.80
2019-02-08T03:12:44.374Z,13.90
2019-02-08T03:13:44.796Z,12.80
2019-02-08T03:14:45.562Z,14.90
2019-02-08T03:15:45.360Z,11.90
2019-02-08T03:16:45.773Z,13.00
2019-02-08T03:17:46.189Z,11.00
2019-02-08T03:18:46.488Z,11.90
2019-02-08T03:19:47.333Z,10.90
2019-02-08T03:20:47.483Z,11.10
2019-02-08T03:21:47.410Z,13.80
2019-02-08T03:22:47.821Z,15.30
2019-02-08T03:23:48.493Z,12.40
2019-02-08T03:24:49.003Z,13.00
2019-02-08T03:25:48.301Z,14.70
2019-02-08T03:26:48.650Z,12.10
2019-02-08T03:27:49.124Z,12.90
2019-02-08T03:28:49.501Z,13.00
2019-02-08T03:29:50.297Z,12.60
2019-02-08T03:30:50.903Z,13.40
2019-02-08T03:31:51.129Z,14.50
2019-02-08T03:32:51.354Z,13.50
2019-02-08T03:33:51.730Z,11.20
2019-02-08T03:34:51.997Z,14.10
2019-02-08T03:35:52.462Z,13.30
2019-02-08T03:36:52.615Z,14.60
2019-02-08T03:37:52.981Z,10.40
2019-02-08T03:38:53.196Z,16.90
2019-02-08T03:39:53.410Z,11.10
2019-02-08T03:40:53.526Z,13.10
2019-02-08T03:41:53.647Z,14.90
2019-02-08T03:42:53.738Z,17.90
2019-02-08T03:43:53.984Z,14.10
2019-02-08T03:44:54.264Z,13.70
2019-02-08T03:45:54.581Z,14.90
2019-02-08T03:46:54.797Z,12.90
2019-02-08T03:47:54.668Z,11.80
2019-02-08T03:48:55.315Z,14.30
2019-02-08T03:49:55.071Z,12.40
2019-02-08T03:50:55.362Z,15.60
2019-02-08T03:51:55.877Z,12.30
2019-02-08T03:52:56.052Z,14.50
2019-02-08T03:53:55.776Z,12.80
2019-02-08T03:54:56.038Z,12.20
2019-02-08T03:55:58.449Z,15.00
2019-02-08T03:56:56.306Z,11.20
2019-02-08T03:57:56.642Z,13.40
2019-02-08T03:58:57.430Z,13.80
2019-02-08T03:59:57.284Z,13.90
2019-02-08T04:00:58.036Z,14.20
2019-02-08T04:01:58.257Z,13.70
2019-02-08T04:02:58.161Z,13.90
2019-02-08T04:03:58.524Z,10.30
2019-02-08T04:04:58.691Z,13.00
2019-02-08T04:05:59.091Z,11.10
2019-02-08T04:06:59.469Z,12.40
2019-02-08T04:08:00.246Z,12.60
2019-02-08T04:09:00.240Z,12.90
2019-02-08T04:10:01.271Z,15.40
2019-02-08T04:11:01.280Z,12.40
2019-02-08T04:12:01.099Z,13.30
2019-02-08T04:13:01.522Z,13.90
2019-02-08T04:14:02.021Z,10.80
2019-02-08T04:15:02.950Z,11.10
2019-02-08T04:16:03.063Z,12.40
2019-02-08T04:17:02.482Z,12.40
2019-02-08T04:18:03.390Z,11.90
2019-02-08T04:19:03.898Z,11.00
2019-02-08T04:20:03.803Z,12.30
2019-02-08T04:21:04.523Z,12.10
2019-02-08T04:22:04.945Z,11.10
2019-02-08T04:23:05.580Z,12.80
2019-02-08T04:24:05.774Z,9.60
2019-02-08T04:25:06.003Z,10.90
2019-02-08T04:26:06.200Z,10.90
2019-02-08T04:27:06.713Z,8.70
2019-02-08T04:28:06.423Z,11.70
2019-02-08T04:29:06.938Z,9.80
2019-02-08T04:30:06.941Z,9.70
2019-02-08T04:31:07.356Z,9.30
2019-02-08T04:32:07.156Z,11.80
2019-02-08T04:33:07.608Z,12.80
2019-02-08T04:34:07.954Z,10.00
2019-02-08T04:35:08.203Z,10.20
2019-02-08T04:36:08.410Z,12.60
2019-02-08T04:37:08.628Z,12.80
2019-02-08T04:38:08.755Z,13.30
2019-02-08T04:39:09.149Z,12.80
2019-02-08T04:40:09.460Z,11.90
2019-02-08T04:41:09.664Z,9.10
2019-02-08T04:42:09.679Z,9.50
2019-02-08T04:43:09.642Z,13.60
2019-02-08T04:44:10.114Z,11.60
2019-02-08T04:45:10.494Z,10.40
2019-02-08T04:46:11.389Z,14.80
2019-02-08T04:47:11.003Z,10.50
2019-02-08T04:48:11.150Z,13.40
2019-02-08T04:49:11.272Z,11.80
2019-02-08T04:50:11.267Z,12.70
2019-02-08T04:51:11.516Z,11.80
2019-02-08T04:52:11.618Z,11.20
2019-02-08T04:53:11.950Z,10.90
2019-02-08T04:54:12.273Z,11.10
2019-02-08T04:55:13.557Z,13.20
2019-02-08T04:56:13.040Z,12.80
2019-02-08T04:57:13.406Z,15.40
2019-02-08T04:59:13.883Z,10.00
2019-02-08T05:00:14.305Z,10.00
2019-02-08T05:01:14.666Z,12.60
2019-02-08T05:02:15.021Z,10.40
2019-02-08T05:03:15.861Z,15.20
2019-02-08T05:04:15.735Z,9.60
2019-02-08T05:05:16.279Z,10.90
2019-02-08T05:06:16.507Z,13.80
2019-02-08T05:07:16.308Z,11.00
2019-02-08T05:08:16.689Z,12.10
2019-02-08T05:09:17.082Z,10.60
2019-02-08T05:10:18.065Z,11.80
2019-02-08T05:11:18.063Z,8.80
2019-02-08T05:12:18.008Z,8.60
2019-02-08T05:13:18.168Z,9.70
2019-02-08T05:14:17.971Z,13.20
2019-02-08T05:15:18.498Z,11.60
2019-02-08T05:16:18.497Z,10.10
2019-02-08T05:17:18.937Z,11.70
2019-02-08T05:18:19.546Z,9.80
2019-02-08T05:19:19.410Z,13.70
2019-02-08T05:20:19.969Z,9.50
2019-02-08T05:21:21.100Z,9.30
2019-02-08T05:22:21.617Z,10.40
2019-02-08T05:23:21.415Z,12.60
2019-02-08T05:24:21.944Z,10.60
2019-02-08T05:25:22.266Z,10.80
2019-02-08T05:26:22.150Z,9.30
2019-02-08T05:27:22.681Z,11.30
2019-02-08T05:28:22.679Z,9.90
2019-02-08T05:29:22.992Z,9.50
2019-02-08T05:30:23.314Z,12.60
2019-02-08T05:31:23.516Z,11.50
2019-02-08T05:32:23.626Z,12.20
2019-02-08T05:33:23.734Z,14.80
2019-02-08T05:34:23.945Z,13.80
2019-02-08T05:35:24.219Z,11.30
2019-02-08T05:36:24.470Z,10.60
2019-02-08T05:37:24.614Z,11.10
2019-02-08T05:38:24.687Z,12.50
2019-02-08T05:39:24.483Z,12.00
2019-02-08T05:40:24.998Z,12.40
2019-02-08T05:41:24.800Z,10.30
2019-02-08T05:42:25.122Z,10.00
2019-02-08T05:43:25.553Z,11.00
2019-02-08T05:44:25.846Z,11.80
2019-02-08T05:45:25.923Z,12.20
2019-02-08T05:47:25.908Z,13.30
2019-02-08T05:48:26.277Z,15.30
2019-02-08T05:49:26.673Z,12.80
2019-02-08T05:50:27.262Z,11.70
2019-02-08T05:51:27.435Z,14.70
2019-02-08T05:52:27.648Z,12.40
2019-02-08T05:53:27.502Z,12.30
2019-02-08T05:54:27.801Z,12.40
2019-02-08T05:55:28.126Z,11.90
2019-02-08T05:56:28.463Z,13.10
2019-02-08T05:57:29.121Z,10.10
2019-02-08T05:58:29.314Z,16.50
2019-02-08T05:59:29.174Z,12.40
2019-02-08T06:00:29.705Z,10.70
2019-02-08T06:01:29.820Z,11.60
2019-02-08T06:02:30.457Z,10.00
2019-02-08T06:03:30.331Z,14.30
2019-02-08T06:04:30.229Z,12.10
2019-02-08T06:05:30.584Z,11.40
2019-02-08T06:06:31.321Z,11.60
2019-02-08T06:07:31.171Z,13.00
2019-02-08T06:08:31.528Z,10.70
2019-02-08T06:09:32.054Z,11.50
2019-02-08T06:10:31.922Z,13.10
2019-02-08T06:11:33.109Z,11.50
2019-02-08T06:12:32.425Z,13.80
2019-02-08T06:13:32.762Z,10.50
2019-02-08T06:14:33.065Z,12.40
2019-02-08T06:15:33.391Z,14.50
2019-02-08T06:16:33.894Z,16.60
2019-02-08T06:17:34.570Z,13.00
2019-02-08T06:18:34.573Z,7.90
2019-02-08T06:19:35.614Z,11.80
2019-02-08T06:20:35.518Z,13.60
2019-02-08T06:21:35.868Z,13.10
2019-02-08T06:22:36.137Z,16.10
2019-02-08T06:23:36.657Z,12.30
2019-02-08T06:24:36.665Z,14.40
2019-02-08T06:25:36.672Z,15.00
2019-02-08T06:26:36.683Z,13.20
2019-02-08T06:27:36.684Z,11.90
2019-02-08T06:28:36.802Z,15.70
2019-02-08T06:29:37.309Z,12.50
2019-02-08T06:30:37.114Z,13.30
2019-02-08T06:32:37.648Z,13.40
2019-02-08T06:33:37.802Z,13.20
2019-02-08T06:34:37.858Z,11.30
2019-02-08T06:35:38.045Z,18.10
2019-02-08T06:36:38.179Z,13.30
2019-02-08T06:37:44.188Z,16.80
2019-02-08T06:38:38.908Z,13.70
2019-02-08T06:39:39.219Z,16.30
2019-02-08T06:40:39.635Z,14.90
2019-02-08T06:41:39.855Z,15.50
2019-02-08T06:42:40.058Z,14.60
2019-02-08T06:43:40.267Z,13.60
2019-02-08T06:44:40.374Z,17.20
2019-02-08T06:45:40.360Z,13.30
2019-02-08T06:46:40.968Z,12.90
2019-02-08T06:47:40.773Z,14.80
2019-02-08T06:48:40.921Z,14.30
2019-02-08T06:49:41.038Z,13.90
2019-02-08T06:50:41.336Z,13.10
2019-02-08T06:51:41.458Z,13.60
2019-02-08T06:52:41.446Z,13.00
2019-02-08T06:53:41.870Z,12.20
2019-02-08T06:54:42.591Z,13.60
2019-02-08T06:55:42.364Z,13.10
2019-02-08T06:56:42.819Z,15.90
2019-02-08T06:57:42.953Z,13.60
2019-02-08T06:58:43.849Z,14.50
2019-02-08T06:59:43.699Z,11.90
2019-02-08T07:00:44.033Z,9.80
2019-02-08T07:01:44.494Z,13.60
2019-02-08T07:02:44.999Z,16.70
2019-02-08T07:03:44.545Z,14.10
2019-02-08T07:04:44.877Z,13.80
2019-02-08T07:05:45.378Z,13.90
2019-02-08T07:06:45.809Z,17.30
2019-02-08T07:07:45.952Z,11.80
2019-02-08T07:08:45.806Z,13.30
2019-02-08T07:09:45.926Z,13.50
2019-02-08T07:10:46.240Z,12.50
2019-02-08T07:11:46.236Z,14.70
2019-02-08T07:12:46.568Z,12.10
2019-02-08T07:13:46.862Z,14.60
2019-02-08T07:14:47.194Z,13.90
2019-02-08T07:15:47.956Z,13.50
2019-02-08T07:16:47.383Z,11.80
2019-02-08T07:17:47.974Z,11.80
2019-02-08T07:18:48.178Z,12.40
2019-02-08T07:19:48.521Z,16.60
2019-02-08T07:20:48.223Z,13.10
2019-02-08T07:21:48.236Z,13.80
2019-02-08T07:22:48.586Z,17.50
2019-02-08T07:23:49.132Z,11.80
2019-02-08T07:24:48.771Z,11.80
2019-02-08T07:25:49.126Z,13.20
2019-02-08T07:26:49.566Z,13.00
2019-02-08T07:27:49.427Z,13.40
2019-02-08T07:28:49.670Z,14.50
2019-02-08T07:29:50.819Z,12.20
2019-02-08T07:30:50.825Z,12.00
2019-02-08T07:31:51.339Z,14.20
2019-02-08T07:32:51.756Z,12.70
2019-02-08T07:33:52.065Z,17.90
2019-02-08T07:34:52.278Z,12.70
2019-02-08T07:35:52.592Z,13.50
2019-02-08T07:36:52.597Z,11.40
2019-02-08T07:37:52.980Z,15.30
2019-02-08T07:38:53.127Z,13.60
2019-02-08T07:39:53.029Z,12.60
2019-02-08T07:40:53.180Z,12.10
2019-02-08T07:41:53.656Z,9.90
2019-02-08T07:42:53.465Z,12.10
2019-02-08T07:43:53.882Z,11.10
2019-02-08T07:44:54.081Z,13.70
2019-02-08T07:45:54.119Z,12.10
2019-02-08T07:46:54.505Z,14.70
2019-02-08T07:47:54.783Z,10.90
2019-02-08T07:48:54.945Z,13.50
2019-02-08T07:49:55.459Z,11.00
2019-02-08T07:50:55.449Z,16.10
2019-02-08T07:51:55.870Z,12.30
2019-02-08T07:52:55.601Z,13.70
2019-02-08T07:53:55.695Z,11.80
2019-02-08T07:54:55.703Z,12.70
2019-02-08T07:55:56.257Z,9.60
2019-02-08T07:56:56.514Z,10.40
2019-02-08T07:57:56.236Z,14.10
2019-02-08T07:58:56.388Z,10.90
2019-02-08T07:59:56.572Z,12.10
2019-02-08T08:00:56.799Z,12.10
2019-02-08T08:01:57.163Z,11.50
2019-02-08T08:02:57.520Z,8.80
2019-02-08T08:04:01.356Z,10.40
2019-02-08T08:04:58.471Z,10.40
2019-02-08T08:05:58.621Z,11.50
2019-02-08T08:06:59.325Z,14.00
2019-02-08T08:08:00.429Z,12.20
2019-02-08T08:08:59.424Z,10.20
2019-02-08T08:09:59.801Z,13.00
2019-02-08T08:10:59.738Z,9.50
2019-02-08T08:12:00.402Z,11.50
2019-02-08T08:13:00.340Z,11.30
2019-02-08T08:14:00.658Z,12.50
2019-02-08T08:15:01.441Z,9.20
2019-02-08T08:16:01.859Z,12.60
2019-02-08T08:17:01.659Z,10.60
2019-02-08T08:18:01.772Z,12.00
2019-02-08T08:19:02.300Z,7.20
2019-02-08T08:20:02.706Z,13.70
2019-02-08T08:21:03.168Z,14.20
2019-02-08T08:22:02.675Z,10.70
2019-02-08T08:23:03.441Z,15.70
2019-02-08T08:24:03.782Z,12.70
2019-02-08T08:25:03.088Z,12.60
2019-02-08T08:26:03.769Z,12.30
2019-02-08T08:27:04.190Z,11.20
2019-02-08T08:28:03.744Z,11.60
2019-02-08T08:29:04.413Z,10.20
2019-02-08T08:30:04.852Z,11.50
2019-02-08T08:31:04.727Z,12.20
2019-02-08T08:32:05.139Z,10.50
2019-02-08T08:33:05.965Z,12.00
2019-02-08T08:34:06.183Z,13.90
2019-02-08T08:35:06.488Z,10.70
2019-02-08T08:36:06.701Z,15.00
2019-02-08T08:37:07.224Z,12.10
2019-02-08T08:38:07.328Z,9.70
2019-02-08T08:39:07.955Z,12.20
2019-02-08T08:40:07.957Z,13.30
2019-02-08T08:41:08.478Z,9.70
2019-02-08T08:42:08.789Z,10.70
2019-02-08T08:43:08.693Z,13.10
2019-02-08T08:44:09.220Z,8.30
2019-02-08T08:45:09.219Z,10.90
2019-02-08T08:46:09.420Z,9.80
2019-02-08T08:47:09.603Z,9.20
2019-02-08T08:48:09.241Z,10.80
2019-02-08T08:49:09.974Z,9.30
2019-02-08T08:50:10.276Z,12.40
2019-02-08T08:51:10.340Z,13.50
2019-02-08T08:52:10.504Z,12.70
2019-02-08T08:53:10.623Z,13.10
2019-02-08T08:54:10.830Z,14.10
2019-02-08T08:55:11.335Z,11.00
2019-02-08T08:56:10.831Z,9.20
2019-02-08T08:57:11.106Z,8.60
2019-02-08T08:58:11.672Z,10.40
2019-02-08T08:59:11.370Z,9.10
2019-02-08T09:00:12.096Z,11.00
2019-02-08T09:01:12.398Z,11.20
2019-02-08T09:02:12.357Z,12.60
2019-02-08T09:03:12.311Z,11.40
2019-02-08T09:04:12.380Z,9.00
2019-02-08T09:05:12.467Z,10.70
2019-02-08T09:06:13.558Z,9.10
2019-02-08T09:07:16.457Z,12.20
2019-02-08T09:08:13.975Z,12.80
2019-02-08T09:09:13.623Z,8.10
2019-02-08T09:10:13.896Z,9.50
2019-02-08T09:11:14.385Z,14.40
2019-02-08T09:12:14.757Z,10.70
2019-02-08T09:13:15.220Z,7.20
2019-02-08T09:14:15.471Z,9.70
2019-02-08T09:15:16.394Z,10.80
2019-02-08T09:16:15.917Z,9.20
2019-02-08T09:17:16.026Z,9.70
2019-02-08T09:18:16.594Z,10.80
2019-02-08T09:19:16.659Z,9.80
2019-02-08T09:20:18.057Z,8.80
2019-02-08T09:21:17.642Z,9.30
2019-02-08T09:22:18.368Z,9.90
2019-02-08T09:23:18.578Z,12.20
2019-02-08T09:24:18.605Z,8.70
2019-02-08T09:25:18.778Z,11.60
2019-02-08T09:26:18.984Z,9.40
2019-02-08T09:27:19.255Z,9.60
2019-02-08T09:28:20.560Z,10.50
2019-02-08T09:29:20.465Z,9.00
2019-02-08T09:30:20.569Z,10.70
2019-02-08T09:31:21.099Z,11.40
2019-02-08T09:32:21.198Z,8.10
2019-02-08T09:33:21.922Z,11.50
2019-02-08T09:34:22.133Z,12.40
2019-02-08T09:35:22.444Z,12.20
2019-02-08T09:36:22.665Z,7.70
2019-02-08T09:37:22.870Z,8.60
2019-02-08T09:38:22.755Z,8.90
2019-02-08T09:39:22.679Z,9.40
2019-02-08T09:40:23.094Z,9.80
2019-02-08T09:41:23.619Z,10.10
2019-02-08T09:42:23.926Z,13.60
2019-02-08T09:43:24.339Z,12.50
2019-02-08T09:44:24.240Z,10.60
2019-02-08T09:45:24.563Z,11.20
2019-02-08T09:46:25.075Z,13.10
2019-02-08T09:47:24.981Z,11.20
2019-02-08T09:48:25.398Z,11.90
2019-02-08T09:49:25.645Z,9.70
2019-02-08T09:50:25.888Z,8.30
2019-02-08T09:51:25.887Z,9.20
2019-02-08T09:52:25.866Z,11.70
2019-02-08T09:53:26.666Z,9.80
2019-02-08T09:54:26.605Z,11.90
2019-02-08T09:55:26.702Z,11.30
2019-02-08T09:56:27.255Z,9.00
2019-02-08T09:57:27.350Z,8.70
2019-02-08T09:58:28.017Z,7.30
2019-02-08T09:59:27.657Z,11.60
2019-02-08T10:00:27.917Z,10.30
2019-02-08T10:01:28.145Z,10.40
2019-02-08T10:02:28.280Z,10.10
2019-02-08T10:03:28.404Z,8.10
2019-02-08T10:04:28.536Z,8.80
2019-02-08T10:05:29.041Z,8.60
2019-02-08T10:06:29.310Z,8.70
2019-02-08T10:07:29.321Z,8.40
2019-02-08T10:08:29.455Z,8.30
2019-02-08T10:09:30.416Z,12.90
2019-02-08T10:10:30.570Z,9.10
2019-02-08T10:11:30.234Z,10.00
2019-02-08T10:12:30.759Z,10.40
2019-02-08T10:13:30.823Z,9.40
2019-02-08T10:14:31.188Z,8.10
2019-02-08T10:15:31.689Z,8.40
2019-02-08T10:16:31.360Z,7.30
2019-02-08T10:17:31.791Z,8.30
2019-02-08T10:18:31.623Z,8.40
2019-02-08T10:19:31.686Z,11.30
2019-02-08T10:20:32.779Z,13.20
2019-02-08T10:21:32.175Z,12.30
2019-02-08T10:22:32.375Z,12.60
2019-02-08T10:23:32.487Z,9.80
2019-02-08T10:24:32.800Z,8.90
2019-02-08T10:25:33.114Z,11.40
2019-02-08T10:26:33.212Z,7.60
2019-02-08T10:27:33.847Z,9.40
2019-02-08T10:28:33.588Z,6.70
2019-02-08T10:29:33.903Z,10.30
2019-02-08T10:30:34.211Z,12.10
2019-02-08T10:31:34.338Z,8.60
2019-02-08T10:32:35.003Z,10.20
2019-02-08T10:33:34.698Z,8.40
2019-02-08T10:34:35.016Z,8.90
2019-02-08T10:35:35.534Z,10.70
2019-02-08T10:36:35.961Z,8.90
2019-02-08T10:37:36.674Z,13.90
2019-02-08T10:38:36.986Z,7.90
2019-02-08T10:39:37.303Z,7.70
2019-02-08T10:40:37.518Z,9.00
2019-02-08T10:41:37.826Z,8.60
2019-02-08T10:42:37.937Z,9.20
2019-02-08T10:43:37.941Z,11.60
2019-02-08T10:44:37.952Z,8.70
2019-02-08T10:45:37.780Z,9.80
2019-02-08T10:46:38.179Z,6.70
2019-02-08T10:47:38.580Z,7.70
2019-02-08T10:48:38.585Z,11.30
2019-02-08T10:49:39.209Z,8.70
2019-02-08T10:50:39.319Z,11.40
2019-02-08T10:51:39.384Z,9.90
2019-02-08T10:52:39.429Z,11.80
2019-02-08T10:53:39.795Z,8.90
2019-02-08T10:54:39.915Z,8.20
2019-02-08T10:55:40.374Z,8.10
2019-02-08T10:56:40.505Z,11.80
2019-02-08T10:57:40.901Z,11.20
2019-02-08T10:58:40.731Z,12.50
2019-02-08T10:59:40.893Z,4.50
2019-02-08T11:00:41.352Z,9.10
2019-02-08T11:01:42.133Z,9.70
2019-02-08T11:02:42.050Z,9.40
2019-02-08T11:03:41.715Z,9.30
2019-02-08T11:04:41.812Z,8.20
2019-02-08T11:05:42.116Z,8.30
2019-02-08T11:06:42.543Z,9.20
2019-02-08T11:07:42.562Z,8.60
2019-02-08T11:08:42.814Z,11.30
2019-02-08T11:09:42.982Z,11.20
2019-02-08T11:10:43.171Z,7.70
2019-02-08T11:11:43.567Z,8.20
2019-02-08T11:12:43.659Z,10.30
2019-02-08T11:13:43.644Z,8.00
2019-02-08T11:14:43.692Z,8.30
2019-02-08T11:15:43.725Z,10.80
2019-02-08T11:16:44.404Z,5.70
2019-02-08T11:17:44.166Z,10.50
2019-02-08T11:18:44.212Z,6.60
2019-02-08T11:19:44.372Z,8.40
2019-02-08T11:20:44.969Z,5.50
2019-02-08T11:21:44.856Z,6.60
2019-02-08T11:22:45.025Z,7.60
2019-02-08T11:23:45.431Z,8.30
2019-02-08T11:24:45.758Z,6.00
2019-02-08T11:25:46.513Z,7.20
2019-02-08T11:26:46.368Z,7.10
2019-02-08T11:27:46.689Z,6.70
2019-02-08T11:28:46.953Z,6.90
2019-02-08T11:29:47.779Z,5.60
2019-02-08T11:30:47.563Z,6.50
2019-02-08T11:31:48.322Z,8.40
2019-02-08T11:32:48.151Z,6.80
2019-02-08T11:33:48.669Z,6.40
2019-02-08T11:34:48.558Z,6.90
2019-02-08T11:35:48.878Z,5.30
2019-02-08T11:36:49.963Z,7.10
2019-02-08T11:37:49.458Z,5.50
2019-02-08T11:38:49.295Z,6.80
2019-02-08T11:39:50.092Z,7.80
2019-02-08T11:40:51.128Z,4.90
2019-02-08T11:41:50.509Z,5.80
2019-02-08T11:42:51.344Z,8.60
2019-02-08T11:43:51.750Z,7.00
2019-02-08T11:44:52.173Z,6.10
2019-02-08T11:45:52.688Z,5.70
2019-02-08T11:46:52.591Z,8.00
2019-02-08T11:47:53.012Z,4.90
2019-02-08T11:48:53.215Z,6.20
2019-02-08T11:49:53.427Z,6.80
2019-02-08T11:50:53.533Z,9.10
2019-02-08T11:51:53.634Z,6.70
2019-02-08T11:52:53.643Z,7.80
2019-02-08T11:53:53.761Z,7.80
2019-02-08T11:54:53.795Z,9.20
2019-02-08T11:55:54.077Z,8.10
2019-02-08T11:56:53.884Z,8.20
2019-02-08T11:57:54.327Z,4.00
2019-02-08T11:58:54.798Z,9.40
2019-02-08T11:59:55.106Z,6.70
2019-02-08T12:00:55.596Z,5.50
2019-02-08T12:01:55.675Z,5.80
2019-02-08T12:02:55.809Z,6.80
2019-02-08T12:03:55.784Z,6.20
2019-02-08T12:04:56.123Z,7.10
2019-02-08T12:05:56.601Z,8.30
2019-02-08T12:06:57.322Z,9.70
2019-02-08T12:07:57.172Z,8.60
2019-02-08T12:08:57.498Z,5.80
2019-02-08T12:09:57.793Z,8.20
2019-02-08T12:10:58.119Z,5.80
2019-02-08T12:11:58.475Z,5.40
2019-02-08T12:12:58.841Z,4.80
2019-02-08T12:13:59.171Z,6.40
2019-02-08T12:14:59.450Z,7.40
2019-02-08T12:15:59.883Z,6.00
2019-02-08T12:17:00.302Z,6.70
2019-02-08T12:18:00.636Z,4.90
2019-02-08T12:19:01.517Z,11.10
2019-02-08T12:20:01.338Z,4.90
2019-02-08T12:21:02.023Z,5.10
2019-02-08T12:22:01.843Z,7.40
2019-02-08T12:24:02.762Z,6.90
2019-02-08T12:25:03.177Z,7.10
2019-02-08T12:26:03.185Z,8.00
2019-02-08T12:27:03.364Z,7.50
2019-02-08T12:28:03.245Z,4.40
2019-02-08T12:29:04.142Z,7.00
2019-02-08T12:30:04.030Z,6.50
2019-02-08T12:31:04.228Z,7.50
2019-02-08T12:32:04.727Z,5.80
2019-02-08T12:33:05.890Z,6.80
2019-02-08T12:34:06.321Z,7.90
2019-02-08T12:35:06.521Z,6.70
2019-02-08T12:36:07.038Z,7.90
2019-02-08T12:37:06.950Z,6.60
2019-02-08T12:38:07.359Z,8.70
2019-02-08T12:39:07.886Z,8.50
2019-02-08T12:40:07.989Z,5.30
2019-02-08T12:42:07.713Z,6.40
2019-02-08T12:43:07.964Z,5.60
2019-02-08T12:44:08.435Z,12.70
2019-02-08T12:45:08.343Z,5.60
2019-02-08T12:46:08.756Z,4.60
2019-02-08T12:47:08.968Z,8.00
2019-02-08T12:48:08.979Z,7.50
2019-02-08T12:49:09.083Z,6.20
2019-02-08T12:50:09.401Z,5.30
2019-02-08T12:51:09.710Z,6.60
2019-02-08T12:52:09.933Z,7.10
2019-02-08T12:53:10.241Z,6.80
2019-02-08T12:54:10.302Z,6.60
2019-02-08T12:55:10.733Z,6.30
2019-02-08T12:56:10.481Z,9.00
2019-02-08T12:57:10.570Z,6.50
2019-02-08T12:58:10.548Z,4.40
2019-02-08T12:59:10.793Z,8.20
2019-02-08T13:00:10.722Z,7.30
2019-02-08T13:01:10.899Z,7.70
2019-02-08T13:02:11.175Z,5.80
2019-02-08T13:03:11.481Z,5.10
2019-02-08T13:04:11.518Z,6.50
2019-02-08T13:05:12.160Z,4.00
2019-02-08T13:06:12.469Z,9.20
2019-02-08T13:07:12.497Z,6.10
2019-02-08T13:08:12.483Z,9.00
2019-02-08T13:09:12.796Z,6.10